EXS83DT LGKR-EGNT
Flight info
| Callsign | EXS83DT |
|---|---|
| Flight time | 3h 20m |
| Altitude | 38000 |
| Route | OLGAT DCT CRAYE DCT GISAM DCT SIPAL DCT UNIPA DCT GORPA DCT SIMBA DCT MOOCE L604 ANELA DCT GASKA DCT MAPOX DCT RENEQ DCT ERLOT DCT NATEB |
| Aircraft | B738/M-SDE2E3FGHIRWXY/LB1 |
Departure
| Time | 2026-05-04 12:14 |
|---|---|
| Airport | Corfu Ioannis Kapodistrias International Airport (LGKR) |
Arrival
| Time | 2026-05-04 15:35 |
|---|---|
| Airport | Newcastle International Airport (EGNT) |
| Time | Latitude | Longitude | Altitude | Speed | Heading |
|---|---|---|---|---|---|
| 2026-05-04 11:13 | 39.60706 | 19.91353 | 17 ft | 0 kts | 79° |
| 2026-05-04 11:49 | 39.60702 | 19.91327 | 17 ft | 4 kts | 79° |
| 2026-05-04 11:49 | 39.60697 | 19.91293 | 19 ft | 4 kts | 79° |
| 2026-05-04 11:49 | 39.60692 | 19.91260 | 20 ft | 2 kts | 79° |
| 2026-05-04 11:50 | 39.60687 | 19.91235 | 18 ft | 4 kts | 44° |
| 2026-05-04 11:50 | 39.60666 | 19.91225 | 18 ft | 4 kts | 350° |
| 2026-05-04 11:50 | 39.60643 | 19.91231 | 20 ft | 2 kts | 349° |
| 2026-05-04 11:50 | 39.60642 | 19.91231 | 20 ft | 4 kts | 349° |
| 2026-05-04 11:55 | 39.60745 | 19.91205 | 19 ft | 12 kts | 349° |
| 2026-05-04 11:55 | 39.60839 | 19.91181 | 17 ft | 16 kts | 348° |
| 2026-05-04 11:56 | 39.60952 | 19.91152 | 18 ft | 17 kts | 348° |
| 2026-05-04 11:56 | 39.61062 | 19.91118 | 18 ft | 16 kts | 345° |
| 2026-05-04 11:56 | 39.61160 | 19.91093 | 18 ft | 11 kts | 346° |
| 2026-05-04 11:56 | 39.61169 | 19.91089 | 18 ft | 0 kts | 341° |
| 2026-05-04 12:12 | 39.61208 | 19.91054 | 19 ft | 13 kts | 308° |
| 2026-05-04 12:12 | 39.61171 | 19.90961 | 20 ft | 17 kts | 165° |
| 2026-05-04 12:12 | 39.60921 | 19.91027 | 18 ft | 71 kts | 168° |
| 2026-05-04 12:13 | 39.60207 | 19.91212 | 21 ft | 137 kts | 168° |
| 2026-05-04 12:14 | 39.60459 | 19.96220 | 3962 ft | 219 kts | 328° |
| 2026-05-04 12:15 | 39.61407 | 19.94713 | 4730 ft | 223 kts | 288° |
| 2026-05-04 12:15 | 39.61372 | 19.92695 | 5414 ft | 232 kts | 254° |
| 2026-05-04 12:15 | 39.60855 | 19.90697 | 6170 ft | 237 kts | 254° |
| 2026-05-04 12:15 | 39.60293 | 19.88582 | 6534 ft | 262 kts | 253° |
| 2026-05-04 12:16 | 39.59674 | 19.86304 | 7013 ft | 277 kts | 253° |
| 2026-05-04 12:16 | 39.59045 | 19.83911 | 7746 ft | 282 kts | 255° |
| 2026-05-04 12:16 | 39.58430 | 19.81488 | 8584 ft | 284 kts | 255° |
| 2026-05-04 12:16 | 39.57827 | 19.79035 | 9369 ft | 288 kts | 256° |
| 2026-05-04 12:17 | 39.57225 | 19.76532 | 10144 ft | 293 kts | 256° |
| 2026-05-04 12:17 | 39.56609 | 19.73943 | 10495 ft | 312 kts | 257° |
| 2026-05-04 12:17 | 39.55947 | 19.71151 | 10688 ft | 336 kts | 256° |
| 2026-05-04 12:17 | 39.55406 | 19.68171 | 11125 ft | 342 kts | 272° |
| 2026-05-04 12:18 | 39.55884 | 19.65211 | 11827 ft | 335 kts | 301° |
| 2026-05-04 12:18 | 39.57218 | 19.62780 | 12661 ft | 331 kts | 313° |
| 2026-05-04 12:18 | 39.58805 | 19.60612 | 13395 ft | 332 kts | 322° |
| 2026-05-04 12:18 | 39.60645 | 19.58795 | 14105 ft | 334 kts | 327° |
| 2026-05-04 12:19 | 39.62562 | 19.57053 | 14808 ft | 335 kts | 327° |
| 2026-05-04 12:19 | 39.64479 | 19.55342 | 15543 ft | 336 kts | 327° |
| 2026-05-04 12:19 | 39.66409 | 19.53617 | 16259 ft | 337 kts | 327° |
| 2026-05-04 12:19 | 39.68347 | 19.51874 | 16951 ft | 340 kts | 327° |
| 2026-05-04 12:20 | 39.70267 | 19.50136 | 17605 ft | 342 kts | 327° |
| 2026-05-04 12:20 | 39.72226 | 19.48354 | 18272 ft | 345 kts | 327° |
| 2026-05-04 12:20 | 39.74193 | 19.46558 | 18876 ft | 347 kts | 326° |
| 2026-05-04 12:20 | 39.76175 | 19.44745 | 19399 ft | 350 kts | 326° |
| 2026-05-04 12:21 | 39.78180 | 19.42907 | 19896 ft | 355 kts | 326° |
| 2026-05-04 12:21 | 39.80200 | 19.41052 | 20460 ft | 357 kts | 326° |
| 2026-05-04 12:21 | 39.82234 | 19.39182 | 21032 ft | 359 kts | 326° |
| 2026-05-04 12:21 | 39.84275 | 19.37304 | 21570 ft | 361 kts | 326° |
| 2026-05-04 12:22 | 39.86338 | 19.35405 | 22093 ft | 364 kts | 326° |
| 2026-05-04 12:22 | 39.88413 | 19.33492 | 22603 ft | 367 kts | 326° |
| 2026-05-04 12:22 | 39.90507 | 19.31561 | 23121 ft | 370 kts | 326° |
| 2026-05-04 12:22 | 39.92617 | 19.29614 | 23617 ft | 373 kts | 326° |
| 2026-05-04 12:23 | 39.94738 | 19.27655 | 24039 ft | 376 kts | 326° |
| 2026-05-04 12:23 | 39.96879 | 19.25676 | 24468 ft | 377 kts | 326° |
| 2026-05-04 12:23 | 39.99018 | 19.23697 | 24916 ft | 378 kts | 326° |
| 2026-05-04 12:23 | 40.01167 | 19.21707 | 25360 ft | 379 kts | 326° |
| 2026-05-04 12:24 | 40.03328 | 19.19705 | 25777 ft | 381 kts | 326° |
| 2026-05-04 12:24 | 40.05492 | 19.17698 | 26193 ft | 382 kts | 326° |
| 2026-05-04 12:24 | 40.07665 | 19.15682 | 26603 ft | 384 kts | 326° |
| 2026-05-04 12:24 | 40.09846 | 19.13656 | 26985 ft | 386 kts | 326° |
| 2026-05-04 12:25 | 40.12038 | 19.11619 | 27335 ft | 388 kts | 326° |
| 2026-05-04 12:25 | 40.14244 | 19.09566 | 27600 ft | 392 kts | 325° |
| 2026-05-04 12:25 | 40.16477 | 19.07486 | 27936 ft | 395 kts | 325° |
| 2026-05-04 12:25 | 40.18694 | 19.05421 | 28329 ft | 396 kts | 325° |
| 2026-05-04 12:26 | 40.20941 | 19.03325 | 28699 ft | 397 kts | 325° |
| 2026-05-04 12:26 | 40.23201 | 19.01217 | 29039 ft | 399 kts | 325° |
| 2026-05-04 12:26 | 40.25520 | 18.99210 | 29357 ft | 401 kts | 330° |
| 2026-05-04 12:26 | 40.27988 | 18.97478 | 29709 ft | 402 kts | 332° |
| 2026-05-04 12:27 | 40.30484 | 18.95808 | 30036 ft | 404 kts | 333° |
| 2026-05-04 12:27 | 40.32990 | 18.94148 | 30320 ft | 405 kts | 333° |
| 2026-05-04 12:27 | 40.35511 | 18.92472 | 30580 ft | 407 kts | 333° |
| 2026-05-04 12:27 | 40.38034 | 18.90783 | 30908 ft | 406 kts | 332° |
| 2026-05-04 12:28 | 40.40514 | 18.89110 | 31312 ft | 403 kts | 332° |
| 2026-05-04 12:28 | 40.43000 | 18.87425 | 31716 ft | 401 kts | 332° |
| 2026-05-04 12:28 | 40.45478 | 18.85739 | 32031 ft | 401 kts | 332° |
| 2026-05-04 12:28 | 40.47959 | 18.84047 | 32340 ft | 401 kts | 332° |
| 2026-05-04 12:29 | 40.50432 | 18.82357 | 32702 ft | 399 kts | 332° |
| 2026-05-04 12:29 | 40.52888 | 18.80677 | 33067 ft | 398 kts | 331° |
| 2026-05-04 12:29 | 40.55342 | 18.78998 | 33395 ft | 397 kts | 331° |
| 2026-05-04 12:29 | 40.57788 | 18.77321 | 33681 ft | 396 kts | 331° |
| 2026-05-04 12:30 | 40.60235 | 18.75643 | 33850 ft | 399 kts | 331° |
| 2026-05-04 12:30 | 40.62702 | 18.73950 | 34070 ft | 400 kts | 331° |
| 2026-05-04 12:30 | 40.65171 | 18.72255 | 34401 ft | 397 kts | 331° |
| 2026-05-04 12:30 | 40.67614 | 18.70576 | 34688 ft | 397 kts | 331° |
| 2026-05-04 12:31 | 40.70065 | 18.68890 | 34858 ft | 398 kts | 331° |
| 2026-05-04 12:31 | 40.72495 | 18.67217 | 35035 ft | 400 kts | 331° |
| 2026-05-04 12:31 | 40.74961 | 18.65518 | 35273 ft | 399 kts | 331° |
| 2026-05-04 12:31 | 40.77424 | 18.63820 | 35521 ft | 398 kts | 331° |
| 2026-05-04 12:32 | 40.79878 | 18.62126 | 35715 ft | 399 kts | 331° |
| 2026-05-04 12:32 | 40.84805 | 18.58721 | 36124 ft | 399 kts | 331° |
| 2026-05-04 12:32 | 40.87267 | 18.57018 | 36337 ft | 399 kts | 331° |
| 2026-05-04 12:33 | 40.89732 | 18.55311 | 36528 ft | 399 kts | 331° |
| 2026-05-04 12:33 | 40.92167 | 18.53623 | 36691 ft | 400 kts | 332° |
| 2026-05-04 12:33 | 40.94633 | 18.51912 | 36885 ft | 400 kts | 332° |
| 2026-05-04 12:33 | 40.97100 | 18.50200 | 37100 ft | 400 kts | 332° |
| 2026-05-04 12:34 | 40.99565 | 18.48487 | 37249 ft | 401 kts | 332° |
| 2026-05-04 12:34 | 41.02042 | 18.46764 | 37367 ft | 402 kts | 332° |
| 2026-05-04 12:34 | 41.04526 | 18.45035 | 37509 ft | 403 kts | 332° |
| 2026-05-04 12:34 | 41.07007 | 18.43306 | 37716 ft | 402 kts | 332° |
| 2026-05-04 12:35 | 41.09485 | 18.41579 | 37878 ft | 402 kts | 331° |
| 2026-05-04 12:35 | 41.11962 | 18.39850 | 37995 ft | 403 kts | 331° |
| 2026-05-04 12:35 | 41.14450 | 18.38112 | 38119 ft | 404 kts | 331° |
| 2026-05-04 12:36 | 41.19452 | 18.34614 | 38136 ft | 406 kts | 331° |
| 2026-05-04 12:36 | 41.24398 | 18.31148 | 38129 ft | 404 kts | 331° |
| 2026-05-04 12:37 | 41.29352 | 18.27672 | 38128 ft | 401 kts | 331° |
| 2026-05-04 12:37 | 41.34272 | 18.24213 | 38131 ft | 399 kts | 331° |
| 2026-05-04 12:38 | 41.39178 | 18.20757 | 38138 ft | 398 kts | 331° |
| 2026-05-04 12:38 | 41.44070 | 18.17306 | 38134 ft | 398 kts | 331° |
| 2026-05-04 12:39 | 41.48973 | 18.13842 | 38135 ft | 399 kts | 331° |
| 2026-05-04 12:39 | 41.53716 | 18.09992 | 38146 ft | 400 kts | 326° |
| 2026-05-04 12:40 | 41.58348 | 18.05845 | 38150 ft | 402 kts | 326° |
| 2026-05-04 12:40 | 41.63004 | 18.01679 | 38139 ft | 404 kts | 326° |
| 2026-05-04 12:41 | 41.67691 | 17.97507 | 38133 ft | 406 kts | 326° |
| 2026-05-04 12:41 | 41.72402 | 17.93318 | 38135 ft | 407 kts | 326° |
| 2026-05-04 12:42 | 41.76326 | 17.89824 | 38137 ft | 408 kts | 326° |
| 2026-05-04 12:42 | 41.81055 | 17.85606 | 38132 ft | 409 kts | 326° |
| 2026-05-04 12:43 | 41.86559 | 17.80686 | 38133 ft | 409 kts | 326° |
| 2026-05-04 12:43 | 41.90521 | 17.77141 | 38133 ft | 409 kts | 327° |
| 2026-05-04 12:44 | 41.95594 | 17.73761 | 38132 ft | 408 kts | 336° |
| 2026-05-04 12:44 | 42.00818 | 17.70933 | 38136 ft | 407 kts | 336° |
| 2026-05-04 12:45 | 42.06072 | 17.68067 | 38138 ft | 406 kts | 336° |
| 2026-05-04 12:45 | 42.11297 | 17.65186 | 38132 ft | 406 kts | 336° |
| 2026-05-04 12:46 | 42.16523 | 17.62289 | 38127 ft | 405 kts | 336° |
| 2026-05-04 12:46 | 42.21738 | 17.59390 | 38132 ft | 405 kts | 336° |
| 2026-05-04 12:47 | 42.26949 | 17.56489 | 38138 ft | 405 kts | 336° |
| 2026-05-04 12:47 | 42.32159 | 17.53582 | 38130 ft | 405 kts | 336° |
| 2026-05-04 12:48 | 42.37346 | 17.50683 | 38134 ft | 406 kts | 336° |
| 2026-05-04 12:48 | 42.42573 | 17.47757 | 38134 ft | 406 kts | 336° |
| 2026-05-04 12:49 | 42.47801 | 17.44825 | 38131 ft | 407 kts | 336° |
| 2026-05-04 12:49 | 42.53046 | 17.41878 | 38134 ft | 408 kts | 336° |
| 2026-05-04 12:50 | 42.58289 | 17.38927 | 38122 ft | 408 kts | 336° |
| 2026-05-04 12:50 | 42.63542 | 17.35965 | 38136 ft | 409 kts | 336° |
| 2026-05-04 12:51 | 42.68768 | 17.33012 | 38131 ft | 410 kts | 336° |
| 2026-05-04 12:51 | 42.74031 | 17.30034 | 38132 ft | 410 kts | 336° |
| 2026-05-04 12:52 | 42.79310 | 17.27040 | 38132 ft | 411 kts | 336° |
| 2026-05-04 12:52 | 42.84590 | 17.24041 | 38131 ft | 412 kts | 336° |
| 2026-05-04 12:53 | 42.89886 | 17.21026 | 38131 ft | 412 kts | 336° |
| 2026-05-04 12:53 | 42.95174 | 17.18011 | 38125 ft | 412 kts | 336° |
| 2026-05-04 12:54 | 43.00434 | 17.15006 | 38133 ft | 412 kts | 336° |
| 2026-05-04 12:54 | 43.05733 | 17.11973 | 38123 ft | 413 kts | 336° |
| 2026-05-04 12:55 | 43.11034 | 17.08933 | 38123 ft | 413 kts | 336° |
| 2026-05-04 12:55 | 43.16307 | 17.05822 | 38120 ft | 412 kts | 334° |
| 2026-05-04 12:56 | 43.21487 | 17.02419 | 38117 ft | 412 kts | 333° |
| 2026-05-04 12:56 | 43.26609 | 16.99006 | 38117 ft | 411 kts | 333° |
| 2026-05-04 12:57 | 43.31769 | 16.95595 | 38120 ft | 411 kts | 333° |
| 2026-05-04 12:57 | 43.36933 | 16.92198 | 38113 ft | 411 kts | 333° |
| 2026-05-04 12:58 | 43.42108 | 16.88793 | 38126 ft | 412 kts | 333° |
| 2026-05-04 12:58 | 43.47287 | 16.85380 | 38118 ft | 412 kts | 333° |
| 2026-05-04 12:59 | 43.52427 | 16.81985 | 38111 ft | 413 kts | 333° |
| 2026-05-04 12:59 | 43.57605 | 16.78559 | 38118 ft | 413 kts | 333° |
| 2026-05-04 13:00 | 43.62792 | 16.75121 | 38120 ft | 413 kts | 333° |
| 2026-05-04 13:00 | 43.67982 | 16.71673 | 38117 ft | 414 kts | 333° |
| 2026-05-04 13:01 | 43.73180 | 16.68213 | 38111 ft | 414 kts | 333° |
| 2026-05-04 13:01 | 43.78340 | 16.64772 | 38128 ft | 415 kts | 333° |
| 2026-05-04 13:02 | 43.83546 | 16.61294 | 38122 ft | 415 kts | 333° |
| 2026-05-04 13:02 | 43.88759 | 16.57804 | 38125 ft | 415 kts | 333° |
| 2026-05-04 13:03 | 43.93957 | 16.54317 | 38125 ft | 415 kts | 333° |
| 2026-05-04 13:03 | 43.99136 | 16.50836 | 38129 ft | 416 kts | 333° |
| 2026-05-04 13:04 | 44.04353 | 16.47345 | 38115 ft | 417 kts | 334° |
| 2026-05-04 13:04 | 44.09640 | 16.44010 | 38117 ft | 417 kts | 334° |
| 2026-05-04 13:05 | 44.14947 | 16.40711 | 38118 ft | 418 kts | 334° |
| 2026-05-04 13:05 | 44.20261 | 16.37384 | 38133 ft | 418 kts | 334° |
| 2026-05-04 13:06 | 44.25541 | 16.34057 | 38115 ft | 419 kts | 334° |
| 2026-05-04 13:06 | 44.30853 | 16.30697 | 38108 ft | 419 kts | 334° |
| 2026-05-04 13:07 | 44.36165 | 16.27329 | 38109 ft | 419 kts | 334° |
| 2026-05-04 13:07 | 44.41448 | 16.23973 | 38119 ft | 419 kts | 334° |
| 2026-05-04 13:08 | 44.46762 | 16.20590 | 38096 ft | 419 kts | 334° |
| 2026-05-04 13:08 | 44.52083 | 16.17198 | 38091 ft | 419 kts | 334° |
| 2026-05-04 13:09 | 44.57393 | 16.13805 | 38094 ft | 419 kts | 334° |
| 2026-05-04 13:09 | 44.62680 | 16.10419 | 38081 ft | 420 kts | 334° |
| 2026-05-04 13:10 | 44.68003 | 16.07004 | 38068 ft | 420 kts | 334° |
| 2026-05-04 13:10 | 44.73320 | 16.03586 | 38068 ft | 420 kts | 334° |
| 2026-05-04 13:11 | 44.78609 | 16.00178 | 38068 ft | 421 kts | 333° |
| 2026-05-04 13:11 | 44.83941 | 15.96737 | 38062 ft | 421 kts | 333° |
| 2026-05-04 13:12 | 44.89288 | 15.93278 | 38050 ft | 422 kts | 334° |
| 2026-05-04 13:12 | 44.94601 | 15.89834 | 38057 ft | 422 kts | 334° |
| 2026-05-04 13:13 | 44.99942 | 15.86366 | 38048 ft | 422 kts | 334° |
| 2026-05-04 13:13 | 45.05290 | 15.82885 | 38049 ft | 423 kts | 333° |
| 2026-05-04 13:14 | 45.10638 | 15.79397 | 38048 ft | 423 kts | 333° |
| 2026-05-04 13:14 | 45.15956 | 15.75921 | 38053 ft | 423 kts | 333° |
| 2026-05-04 13:15 | 45.21314 | 15.72412 | 38053 ft | 424 kts | 333° |
| 2026-05-04 13:15 | 45.26672 | 15.68897 | 38049 ft | 424 kts | 333° |
| 2026-05-04 13:16 | 45.32010 | 15.65386 | 38046 ft | 425 kts | 333° |
| 2026-05-04 13:16 | 45.37376 | 15.61850 | 38042 ft | 425 kts | 333° |
| 2026-05-04 13:17 | 45.42755 | 15.58297 | 38046 ft | 426 kts | 333° |
| 2026-05-04 13:17 | 45.48127 | 15.54742 | 38050 ft | 426 kts | 333° |
| 2026-05-04 13:18 | 45.53510 | 15.51172 | 38044 ft | 427 kts | 333° |
| 2026-05-04 13:18 | 45.58864 | 15.47613 | 38046 ft | 427 kts | 333° |
| 2026-05-04 13:19 | 45.64253 | 15.44024 | 38040 ft | 427 kts | 333° |
| 2026-05-04 13:19 | 45.69637 | 15.40430 | 38038 ft | 427 kts | 333° |
| 2026-05-04 13:20 | 45.75030 | 15.36823 | 38044 ft | 427 kts | 333° |
| 2026-05-04 13:20 | 45.80250 | 15.32877 | 38053 ft | 425 kts | 327° |
| 2026-05-04 13:21 | 45.85242 | 15.28318 | 38045 ft | 425 kts | 325° |
| 2026-05-04 13:21 | 45.90222 | 15.23704 | 38047 ft | 426 kts | 326° |
| 2026-05-04 13:22 | 45.95224 | 15.19120 | 38048 ft | 426 kts | 326° |
| 2026-05-04 13:22 | 46.00207 | 15.14584 | 38039 ft | 426 kts | 326° |
| 2026-05-04 13:23 | 46.05225 | 15.10017 | 38036 ft | 426 kts | 326° |
| 2026-05-04 13:23 | 46.10234 | 15.05450 | 38044 ft | 426 kts | 326° |
| 2026-05-04 13:24 | 46.15251 | 15.00866 | 38043 ft | 426 kts | 326° |
| 2026-05-04 13:24 | 46.20234 | 14.96302 | 38047 ft | 426 kts | 325° |
| 2026-05-04 13:25 | 46.27753 | 14.89395 | 38043 ft | 427 kts | 325° |
| 2026-05-04 13:25 | 46.32741 | 14.84801 | 38051 ft | 427 kts | 324° |
| 2026-05-04 13:26 | 46.37751 | 14.80178 | 38054 ft | 426 kts | 324° |
| 2026-05-04 13:26 | 46.42754 | 14.75550 | 38038 ft | 426 kts | 325° |
| 2026-05-04 13:27 | 46.47746 | 14.70921 | 38040 ft | 425 kts | 325° |
| 2026-05-04 13:27 | 46.52693 | 14.66324 | 38032 ft | 425 kts | 325° |
| 2026-05-04 13:28 | 46.57687 | 14.61673 | 38030 ft | 426 kts | 324° |
| 2026-05-04 13:28 | 46.62684 | 14.57010 | 38023 ft | 427 kts | 325° |
| 2026-05-04 13:29 | 46.67657 | 14.52358 | 38036 ft | 428 kts | 325° |
| 2026-05-04 13:29 | 46.72676 | 14.47652 | 38026 ft | 429 kts | 325° |
| 2026-05-04 13:30 | 46.77708 | 14.42925 | 38023 ft | 430 kts | 325° |
| 2026-05-04 13:30 | 46.82745 | 14.38181 | 38021 ft | 431 kts | 324° |
| 2026-05-04 13:31 | 46.87771 | 14.33438 | 38024 ft | 431 kts | 324° |
| 2026-05-04 13:31 | 46.92821 | 14.28661 | 38028 ft | 432 kts | 324° |
| 2026-05-04 13:32 | 46.97881 | 14.23863 | 38008 ft | 433 kts | 324° |
| 2026-05-04 13:32 | 47.02912 | 14.19082 | 38002 ft | 434 kts | 324° |
| 2026-05-04 13:33 | 47.07978 | 14.14257 | 38009 ft | 434 kts | 324° |
| 2026-05-04 13:33 | 47.13048 | 14.09417 | 38002 ft | 434 kts | 324° |
| 2026-05-04 13:34 | 47.18077 | 14.04606 | 38014 ft | 434 kts | 324° |
| 2026-05-04 13:34 | 47.23139 | 13.99750 | 37996 ft | 434 kts | 324° |
| 2026-05-04 13:35 | 47.30704 | 13.92473 | 37993 ft | 434 kts | 324° |
| 2026-05-04 13:36 | 47.35767 | 13.87591 | 37981 ft | 434 kts | 324° |
| 2026-05-04 13:36 | 47.39964 | 13.83532 | 37987 ft | 433 kts | 324° |
| 2026-05-04 13:37 | 47.45015 | 13.78640 | 37986 ft | 433 kts | 324° |
| 2026-05-04 13:37 | 47.50059 | 13.73741 | 37957 ft | 433 kts | 324° |
| 2026-05-04 13:38 | 47.55056 | 13.68878 | 37968 ft | 433 kts | 324° |
| 2026-05-04 13:38 | 47.60093 | 13.63964 | 37949 ft | 433 kts | 323° |
| 2026-05-04 13:39 | 47.65123 | 13.59045 | 37956 ft | 433 kts | 323° |
| 2026-05-04 13:39 | 47.70155 | 13.54114 | 37954 ft | 434 kts | 323° |
| 2026-05-04 13:40 | 47.75192 | 13.49164 | 37949 ft | 434 kts | 323° |
| 2026-05-04 13:40 | 47.80226 | 13.44207 | 37945 ft | 434 kts | 323° |
| 2026-05-04 13:41 | 47.85264 | 13.39234 | 37938 ft | 435 kts | 323° |
| 2026-05-04 13:41 | 47.90272 | 13.34278 | 37941 ft | 435 kts | 323° |
| 2026-05-04 13:42 | 47.97834 | 13.26774 | 37924 ft | 435 kts | 323° |
| 2026-05-04 13:42 | 48.02871 | 13.21761 | 37930 ft | 435 kts | 323° |
| 2026-05-04 13:43 | 48.07908 | 13.16735 | 37929 ft | 435 kts | 323° |
| 2026-05-04 13:43 | 48.12935 | 13.11706 | 37928 ft | 434 kts | 323° |
| 2026-05-04 13:44 | 48.17952 | 13.06676 | 37931 ft | 434 kts | 323° |
| 2026-05-04 13:44 | 48.22966 | 13.01638 | 37929 ft | 434 kts | 323° |
| 2026-05-04 13:45 | 48.27907 | 12.96472 | 37933 ft | 433 kts | 321° |
| 2026-05-04 13:45 | 48.32808 | 12.91205 | 37944 ft | 433 kts | 321° |
| 2026-05-04 13:46 | 48.37710 | 12.85932 | 37945 ft | 433 kts | 321° |
| 2026-05-04 13:46 | 48.42620 | 12.80660 | 37938 ft | 434 kts | 321° |
| 2026-05-04 13:47 | 48.47501 | 12.75417 | 37944 ft | 434 kts | 321° |
| 2026-05-04 13:47 | 48.52444 | 12.70096 | 37945 ft | 434 kts | 321° |
| 2026-05-04 13:48 | 48.57356 | 12.64796 | 37954 ft | 434 kts | 321° |
| 2026-05-04 13:48 | 48.62258 | 12.59492 | 37969 ft | 434 kts | 321° |
| 2026-05-04 13:49 | 48.67167 | 12.54168 | 37960 ft | 434 kts | 321° |
| 2026-05-04 13:49 | 48.72066 | 12.48842 | 37969 ft | 434 kts | 321° |
| 2026-05-04 13:50 | 48.76965 | 12.43502 | 37964 ft | 433 kts | 321° |
| 2026-05-04 13:50 | 48.81854 | 12.38161 | 37967 ft | 433 kts | 321° |
| 2026-05-04 13:51 | 48.86738 | 12.32811 | 37980 ft | 432 kts | 321° |
| 2026-05-04 13:51 | 48.91611 | 12.27460 | 37965 ft | 432 kts | 320° |
| 2026-05-04 13:52 | 48.98887 | 12.19448 | 37955 ft | 432 kts | 320° |
| 2026-05-04 13:53 | 49.03753 | 12.14072 | 37964 ft | 432 kts | 320° |
| 2026-05-04 13:53 | 49.08623 | 12.08678 | 37967 ft | 433 kts | 320° |
| 2026-05-04 13:54 | 49.15930 | 12.00561 | 37989 ft | 433 kts | 320° |
| 2026-05-04 13:55 | 49.23237 | 11.92413 | 37955 ft | 433 kts | 320° |
| 2026-05-04 13:55 | 49.30527 | 11.84254 | 37961 ft | 432 kts | 320° |
| 2026-05-04 13:56 | 49.35373 | 11.78813 | 37960 ft | 432 kts | 320° |
| 2026-05-04 13:57 | 49.42636 | 11.70632 | 37979 ft | 432 kts | 320° |
| 2026-05-04 13:58 | 49.52314 | 11.59683 | 37982 ft | 432 kts | 320° |
| 2026-05-04 13:58 | 49.59223 | 11.50926 | 37996 ft | 425 kts | 309° |
| 2026-05-04 13:59 | 49.63256 | 11.44250 | 37997 ft | 426 kts | 309° |
| 2026-05-04 14:00 | 49.69405 | 11.34425 | 37981 ft | 426 kts | 310° |
| 2026-05-04 14:00 | 49.75615 | 11.24558 | 37978 ft | 427 kts | 310° |
| 2026-05-04 14:01 | 49.79750 | 11.17959 | 37985 ft | 427 kts | 310° |
| 2026-05-04 14:02 | 49.85962 | 11.08032 | 37977 ft | 429 kts | 310° |
| 2026-05-04 14:02 | 49.90108 | 11.01384 | 38004 ft | 429 kts | 310° |
| 2026-05-04 14:03 | 49.94259 | 10.94709 | 37985 ft | 430 kts | 310° |
| 2026-05-04 14:03 | 49.98408 | 10.88019 | 37979 ft | 430 kts | 310° |
| 2026-05-04 14:04 | 50.04626 | 10.77960 | 37977 ft | 430 kts | 310° |
| 2026-05-04 14:04 | 50.08765 | 10.71241 | 37979 ft | 430 kts | 309° |
| 2026-05-04 14:05 | 50.14967 | 10.61142 | 37978 ft | 430 kts | 309° |
| 2026-05-04 14:06 | 50.19067 | 10.54440 | 37978 ft | 430 kts | 309° |
| 2026-05-04 14:06 | 50.23196 | 10.47677 | 37977 ft | 430 kts | 309° |
| 2026-05-04 14:07 | 50.27320 | 10.40901 | 37974 ft | 430 kts | 309° |
| 2026-05-04 14:07 | 50.31440 | 10.34114 | 37969 ft | 431 kts | 309° |
| 2026-05-04 14:08 | 50.35560 | 10.27307 | 37973 ft | 430 kts | 308° |
| 2026-05-04 14:08 | 50.39497 | 10.20289 | 37985 ft | 429 kts | 306° |
| 2026-05-04 14:09 | 50.45264 | 10.09567 | 37981 ft | 428 kts | 306° |
| 2026-05-04 14:10 | 50.51044 | 9.98890 | 37977 ft | 428 kts | 306° |
| 2026-05-04 14:10 | 50.54904 | 9.91770 | 37971 ft | 428 kts | 306° |
| 2026-05-04 14:11 | 50.58759 | 9.84643 | 37975 ft | 428 kts | 306° |
| 2026-05-04 14:11 | 50.64535 | 9.73924 | 37982 ft | 428 kts | 305° |
| 2026-05-04 14:12 | 50.68383 | 9.66759 | 37970 ft | 428 kts | 305° |
| 2026-05-04 14:13 | 50.74155 | 9.55972 | 37973 ft | 429 kts | 305° |
| 2026-05-04 14:13 | 50.77993 | 9.48774 | 37960 ft | 428 kts | 305° |
| 2026-05-04 14:14 | 50.81824 | 9.41569 | 37957 ft | 428 kts | 305° |
| 2026-05-04 14:14 | 50.87578 | 9.30709 | 37957 ft | 429 kts | 305° |
| 2026-05-04 14:15 | 50.95237 | 9.16184 | 37971 ft | 430 kts | 305° |
| 2026-05-04 14:16 | 51.00950 | 9.05296 | 37971 ft | 430 kts | 305° |
| 2026-05-04 14:17 | 51.06683 | 8.94321 | 37971 ft | 430 kts | 305° |
| 2026-05-04 14:18 | 51.12406 | 8.83325 | 37959 ft | 430 kts | 305° |
| 2026-05-04 14:19 | 51.21462 | 8.70564 | 37986 ft | 437 kts | 316° |
| 2026-05-04 14:19 | 51.26177 | 8.64443 | 37982 ft | 437 kts | 315° |
| 2026-05-04 14:20 | 51.30861 | 8.58265 | 37969 ft | 437 kts | 315° |
| 2026-05-04 14:20 | 51.35529 | 8.52049 | 37966 ft | 437 kts | 315° |
| 2026-05-04 14:21 | 51.42525 | 8.42682 | 37966 ft | 437 kts | 315° |
| 2026-05-04 14:21 | 51.47183 | 8.36426 | 37971 ft | 437 kts | 315° |
| 2026-05-04 14:22 | 51.51842 | 8.30151 | 37987 ft | 437 kts | 315° |
| 2026-05-04 14:22 | 51.56468 | 8.23905 | 37970 ft | 437 kts | 315° |
| 2026-05-04 14:23 | 51.63473 | 8.14412 | 37967 ft | 437 kts | 315° |
| 2026-05-04 14:24 | 51.68084 | 8.08142 | 37973 ft | 437 kts | 315° |
| 2026-05-04 14:24 | 51.72729 | 8.01809 | 37963 ft | 437 kts | 315° |
| 2026-05-04 14:25 | 51.77367 | 7.95468 | 37967 ft | 437 kts | 315° |
| 2026-05-04 14:25 | 51.84313 | 7.85937 | 37963 ft | 436 kts | 314° |
| 2026-05-04 14:26 | 51.88152 | 7.80653 | 37986 ft | 436 kts | 314° |
| 2026-05-04 14:26 | 51.92770 | 7.74280 | 37970 ft | 436 kts | 314° |
| 2026-05-04 14:27 | 51.97380 | 7.67898 | 37968 ft | 436 kts | 314° |
| 2026-05-04 14:27 | 52.01991 | 7.61500 | 37971 ft | 436 kts | 314° |
| 2026-05-04 14:28 | 52.06592 | 7.55095 | 37975 ft | 436 kts | 314° |
| 2026-05-04 14:28 | 52.11199 | 7.48665 | 37966 ft | 436 kts | 314° |
| 2026-05-04 14:29 | 52.20402 | 7.35765 | 37968 ft | 437 kts | 314° |
| 2026-05-04 14:30 | 52.25001 | 7.29292 | 37974 ft | 437 kts | 314° |
| 2026-05-04 14:31 | 52.31897 | 7.19551 | 37999 ft | 437 kts | 314° |
| 2026-05-04 14:32 | 52.41075 | 7.06520 | 37970 ft | 436 kts | 314° |
| 2026-05-04 14:32 | 52.45648 | 7.00001 | 37971 ft | 435 kts | 314° |
| 2026-05-04 14:33 | 52.50209 | 6.93479 | 37970 ft | 435 kts | 314° |
| 2026-05-04 14:33 | 52.54765 | 6.86946 | 37973 ft | 434 kts | 314° |
| 2026-05-04 14:34 | 52.59311 | 6.80408 | 37985 ft | 434 kts | 314° |
| 2026-05-04 14:34 | 52.63818 | 6.73907 | 37973 ft | 433 kts | 314° |
| 2026-05-04 14:35 | 52.68348 | 6.67356 | 37972 ft | 433 kts | 314° |
| 2026-05-04 14:35 | 52.72866 | 6.60803 | 37980 ft | 432 kts | 314° |
| 2026-05-04 14:36 | 52.77375 | 6.54243 | 37988 ft | 432 kts | 314° |
| 2026-05-04 14:36 | 52.81881 | 6.47668 | 37979 ft | 432 kts | 314° |
| 2026-05-04 14:37 | 52.86388 | 6.41074 | 37977 ft | 432 kts | 314° |
| 2026-05-04 14:37 | 52.90889 | 6.34470 | 37990 ft | 432 kts | 314° |
| 2026-05-04 14:38 | 52.95384 | 6.27856 | 37996 ft | 432 kts | 314° |
| 2026-05-04 14:38 | 52.99880 | 6.21221 | 37998 ft | 431 kts | 314° |
| 2026-05-04 14:39 | 53.04364 | 6.14582 | 38007 ft | 432 kts | 314° |
| 2026-05-04 14:39 | 53.08820 | 6.07967 | 38003 ft | 432 kts | 314° |
| 2026-05-04 14:40 | 53.15556 | 5.97932 | 38023 ft | 433 kts | 314° |
| 2026-05-04 14:40 | 53.20055 | 5.91204 | 38024 ft | 435 kts | 314° |
| 2026-05-04 14:41 | 53.24565 | 5.84440 | 38024 ft | 436 kts | 314° |
| 2026-05-04 14:42 | 53.33583 | 5.70855 | 38025 ft | 439 kts | 314° |
| 2026-05-04 14:42 | 53.38118 | 5.63993 | 38033 ft | 440 kts | 314° |
| 2026-05-04 14:43 | 53.42664 | 5.57094 | 38023 ft | 441 kts | 314° |
| 2026-05-04 14:43 | 53.47022 | 5.50461 | 38027 ft | 441 kts | 314° |
| 2026-05-04 14:44 | 53.50888 | 5.44561 | 38025 ft | 441 kts | 314° |
| 2026-05-04 14:44 | 53.55023 | 5.38234 | 38030 ft | 440 kts | 314° |
| 2026-05-04 14:45 | 53.59066 | 5.32030 | 38031 ft | 440 kts | 314° |
| 2026-05-04 14:45 | 53.62833 | 5.26234 | 38045 ft | 439 kts | 314° |
| 2026-05-04 14:46 | 53.66814 | 5.20092 | 38034 ft | 438 kts | 314° |
| 2026-05-04 14:46 | 53.71251 | 5.13226 | 38033 ft | 438 kts | 315° |
| 2026-05-04 14:47 | 53.75697 | 5.06326 | 38035 ft | 437 kts | 315° |
| 2026-05-04 14:47 | 53.80167 | 4.99370 | 38035 ft | 436 kts | 314° |
| 2026-05-04 14:48 | 53.84627 | 4.92407 | 38031 ft | 436 kts | 314° |
| 2026-05-04 14:48 | 53.89074 | 4.85442 | 38030 ft | 435 kts | 314° |
| 2026-05-04 14:49 | 53.93519 | 4.78461 | 38040 ft | 436 kts | 314° |
| 2026-05-04 14:49 | 53.97963 | 4.71460 | 38029 ft | 436 kts | 314° |
| 2026-05-04 14:50 | 54.02407 | 4.64437 | 38026 ft | 436 kts | 314° |
| 2026-05-04 14:50 | 54.06842 | 4.57407 | 38029 ft | 436 kts | 314° |
| 2026-05-04 14:51 | 54.11271 | 4.50363 | 38040 ft | 436 kts | 314° |
| 2026-05-04 14:51 | 54.15700 | 4.43299 | 38035 ft | 436 kts | 314° |
| 2026-05-04 14:52 | 54.20124 | 4.36224 | 38042 ft | 436 kts | 314° |
| 2026-05-04 14:52 | 54.24108 | 4.28522 | 38035 ft | 431 kts | 300° |
| 2026-05-04 14:53 | 54.26659 | 4.19407 | 38042 ft | 428 kts | 290° |
| 2026-05-04 14:53 | 54.28859 | 4.09949 | 38038 ft | 428 kts | 290° |
| 2026-05-04 14:54 | 54.31062 | 4.00488 | 38038 ft | 428 kts | 290° |
| 2026-05-04 14:54 | 54.33287 | 3.91014 | 38042 ft | 428 kts | 290° |
| 2026-05-04 14:55 | 54.35513 | 3.81553 | 38037 ft | 428 kts | 290° |
| 2026-05-04 14:55 | 54.37739 | 3.72067 | 38039 ft | 429 kts | 290° |
| 2026-05-04 14:56 | 54.39959 | 3.62565 | 38044 ft | 429 kts | 290° |
| 2026-05-04 14:56 | 54.42179 | 3.53018 | 38037 ft | 430 kts | 290° |
| 2026-05-04 14:57 | 54.44374 | 3.43534 | 38043 ft | 430 kts | 290° |
| 2026-05-04 14:57 | 54.46592 | 3.33909 | 38046 ft | 431 kts | 290° |
| 2026-05-04 14:58 | 54.48777 | 3.24384 | 38047 ft | 431 kts | 290° |
| 2026-05-04 14:58 | 54.50968 | 3.14788 | 38041 ft | 432 kts | 290° |
| 2026-05-04 14:59 | 54.53156 | 3.05164 | 38047 ft | 432 kts | 290° |
| 2026-05-04 15:00 | 54.56428 | 2.90686 | 38051 ft | 432 kts | 290° |
| 2026-05-04 15:00 | 54.58602 | 2.81013 | 38050 ft | 433 kts | 290° |
| 2026-05-04 15:01 | 54.61851 | 2.66474 | 38042 ft | 433 kts | 290° |
| 2026-05-04 15:01 | 54.62936 | 2.61595 | 37646 ft | 439 kts | 290° |
| 2026-05-04 15:01 | 54.64022 | 2.56698 | 37338 ft | 433 kts | 290° |
| 2026-05-04 15:02 | 54.65095 | 2.51854 | 36888 ft | 430 kts | 290° |
| 2026-05-04 15:02 | 54.66156 | 2.47048 | 36512 ft | 426 kts | 290° |
| 2026-05-04 15:02 | 54.67190 | 2.42356 | 36135 ft | 422 kts | 290° |
| 2026-05-04 15:02 | 54.68226 | 2.37644 | 35753 ft | 418 kts | 290° |
| 2026-05-04 15:03 | 54.69255 | 2.32950 | 35367 ft | 415 kts | 291° |
| 2026-05-04 15:03 | 54.70273 | 2.28299 | 34984 ft | 412 kts | 291° |
| 2026-05-04 15:03 | 54.71284 | 2.23667 | 34602 ft | 410 kts | 291° |
| 2026-05-04 15:03 | 54.72286 | 2.19070 | 34227 ft | 408 kts | 291° |
| 2026-05-04 15:04 | 54.73283 | 2.14483 | 33790 ft | 406 kts | 291° |
| 2026-05-04 15:04 | 54.74272 | 2.09923 | 33396 ft | 403 kts | 291° |
| 2026-05-04 15:04 | 54.75253 | 2.05391 | 33007 ft | 400 kts | 291° |
| 2026-05-04 15:04 | 54.76222 | 2.00902 | 32632 ft | 397 kts | 291° |
| 2026-05-04 15:05 | 54.77182 | 1.96445 | 32266 ft | 394 kts | 291° |
| 2026-05-04 15:05 | 54.78136 | 1.92008 | 31903 ft | 391 kts | 291° |
| 2026-05-04 15:05 | 54.79080 | 1.87608 | 31547 ft | 388 kts | 291° |
| 2026-05-04 15:05 | 54.80004 | 1.83294 | 31198 ft | 385 kts | 291° |
| 2026-05-04 15:06 | 54.80931 | 1.78954 | 30845 ft | 383 kts | 291° |
| 2026-05-04 15:06 | 54.81850 | 1.74639 | 30502 ft | 380 kts | 291° |
| 2026-05-04 15:06 | 54.82763 | 1.70348 | 30156 ft | 378 kts | 291° |
| 2026-05-04 15:07 | 54.84566 | 1.61846 | 29363 ft | 372 kts | 291° |
| 2026-05-04 15:07 | 54.85452 | 1.57654 | 29022 ft | 368 kts | 291° |
| 2026-05-04 15:07 | 54.86329 | 1.53498 | 28642 ft | 366 kts | 291° |
| 2026-05-04 15:07 | 54.87198 | 1.49369 | 28298 ft | 362 kts | 291° |
| 2026-05-04 15:08 | 54.88058 | 1.45279 | 27933 ft | 359 kts | 291° |
| 2026-05-04 15:08 | 54.88908 | 1.41224 | 27598 ft | 356 kts | 291° |
| 2026-05-04 15:08 | 54.89752 | 1.37191 | 27244 ft | 354 kts | 291° |
| 2026-05-04 15:08 | 54.90588 | 1.33189 | 26903 ft | 351 kts | 291° |
| 2026-05-04 15:09 | 54.91416 | 1.29217 | 26563 ft | 349 kts | 291° |
| 2026-05-04 15:09 | 54.92239 | 1.25261 | 26233 ft | 346 kts | 291° |
| 2026-05-04 15:09 | 54.93053 | 1.21339 | 25892 ft | 344 kts | 290° |
| 2026-05-04 15:10 | 54.94664 | 1.13558 | 25233 ft | 340 kts | 290° |
| 2026-05-04 15:10 | 54.95462 | 1.09689 | 24901 ft | 338 kts | 290° |
| 2026-05-04 15:10 | 54.97030 | 1.02073 | 24249 ft | 335 kts | 290° |
| 2026-05-04 15:11 | 54.97813 | 0.98260 | 23922 ft | 334 kts | 290° |
| 2026-05-04 15:11 | 54.98590 | 0.94463 | 23590 ft | 332 kts | 290° |
| 2026-05-04 15:11 | 54.99363 | 0.90684 | 23207 ft | 331 kts | 290° |
| 2026-05-04 15:11 | 55.00131 | 0.86918 | 22855 ft | 329 kts | 290° |
| 2026-05-04 15:12 | 55.00893 | 0.83177 | 22531 ft | 326 kts | 289° |
| 2026-05-04 15:12 | 55.01645 | 0.79481 | 22220 ft | 323 kts | 289° |
| 2026-05-04 15:12 | 55.02391 | 0.75803 | 21905 ft | 320 kts | 289° |
| 2026-05-04 15:12 | 55.03128 | 0.72166 | 21580 ft | 318 kts | 289° |
| 2026-05-04 15:13 | 55.03860 | 0.68544 | 21268 ft | 315 kts | 289° |
| 2026-05-04 15:13 | 55.04584 | 0.64955 | 20958 ft | 313 kts | 289° |
| 2026-05-04 15:13 | 55.05301 | 0.61395 | 20652 ft | 310 kts | 289° |
| 2026-05-04 15:13 | 55.06014 | 0.57851 | 20340 ft | 308 kts | 289° |
| 2026-05-04 15:14 | 55.06720 | 0.54334 | 20032 ft | 306 kts | 289° |
| 2026-05-04 15:14 | 55.07420 | 0.50838 | 19730 ft | 304 kts | 289° |
| 2026-05-04 15:14 | 55.08114 | 0.47368 | 19427 ft | 302 kts | 289° |
| 2026-05-04 15:14 | 55.08796 | 0.43954 | 19143 ft | 301 kts | 289° |
| 2026-05-04 15:15 | 55.09480 | 0.40519 | 18834 ft | 300 kts | 289° |
| 2026-05-04 15:15 | 55.10162 | 0.37089 | 18546 ft | 298 kts | 289° |
| 2026-05-04 15:15 | 55.10840 | 0.33679 | 18239 ft | 296 kts | 289° |
| 2026-05-04 15:16 | 55.12181 | 0.26909 | 17592 ft | 293 kts | 289° |
| 2026-05-04 15:16 | 55.12841 | 0.23568 | 17301 ft | 290 kts | 288° |
| 2026-05-04 15:16 | 55.13925 | 0.18068 | 16808 ft | 286 kts | 288° |
| 2026-05-04 15:17 | 55.14569 | 0.14792 | 16523 ft | 284 kts | 288° |
| 2026-05-04 15:17 | 55.15842 | 0.08301 | 15946 ft | 280 kts | 288° |
| 2026-05-04 15:17 | 55.16470 | 0.05092 | 15666 ft | 278 kts | 288° |
| 2026-05-04 15:18 | 55.17095 | 0.01896 | 15379 ft | 277 kts | 288° |
| 2026-05-04 15:18 | 55.17715 | -0.01285 | 15104 ft | 275 kts | 288° |
| 2026-05-04 15:18 | 55.18331 | -0.04446 | 14821 ft | 274 kts | 288° |
| 2026-05-04 15:19 | 55.19550 | -0.10724 | 14272 ft | 271 kts | 288° |
| 2026-05-04 15:19 | 55.20123 | -0.13879 | 13898 ft | 273 kts | 280° |
| 2026-05-04 15:19 | 55.20067 | -0.17463 | 13292 ft | 282 kts | 263° |
| 2026-05-04 15:20 | 55.20017 | -0.18097 | 13217 ft | 282 kts | 263° |
| 2026-05-04 15:20 | 55.19734 | -0.21495 | 12803 ft | 284 kts | 262° |
| 2026-05-04 15:20 | 55.19448 | -0.24916 | 12480 ft | 283 kts | 263° |
| 2026-05-04 15:20 | 55.19172 | -0.28311 | 12169 ft | 281 kts | 263° |
| 2026-05-04 15:21 | 55.18904 | -0.31690 | 11863 ft | 279 kts | 263° |
| 2026-05-04 15:21 | 55.18644 | -0.35043 | 11574 ft | 277 kts | 263° |
| 2026-05-04 15:21 | 55.18138 | -0.41686 | 11005 ft | 273 kts | 263° |
| 2026-05-04 15:22 | 55.17891 | -0.44974 | 10717 ft | 272 kts | 263° |
| 2026-05-04 15:22 | 55.17645 | -0.48241 | 10435 ft | 270 kts | 263° |
| 2026-05-04 15:22 | 55.17162 | -0.54667 | 10066 ft | 260 kts | 263° |
| 2026-05-04 15:23 | 55.16926 | -0.57793 | 9787 ft | 259 kts | 263° |
| 2026-05-04 15:23 | 55.16692 | -0.60897 | 9497 ft | 257 kts | 263° |
| 2026-05-04 15:23 | 55.16458 | -0.63993 | 9254 ft | 255 kts | 263° |
| 2026-05-04 15:23 | 55.16225 | -0.67058 | 8981 ft | 253 kts | 263° |
| 2026-05-04 15:24 | 55.15764 | -0.73105 | 8470 ft | 249 kts | 263° |
| 2026-05-04 15:24 | 55.15310 | -0.79023 | 7961 ft | 245 kts | 263° |
| 2026-05-04 15:25 | 55.15084 | -0.81964 | 7696 ft | 243 kts | 263° |
| 2026-05-04 15:25 | 55.14858 | -0.84884 | 7471 ft | 242 kts | 263° |
| 2026-05-04 15:25 | 55.14633 | -0.87782 | 7212 ft | 240 kts | 263° |
| 2026-05-04 15:26 | 55.14185 | -0.93525 | 6733 ft | 237 kts | 263° |
| 2026-05-04 15:26 | 55.13963 | -0.96367 | 6492 ft | 235 kts | 263° |
| 2026-05-04 15:26 | 55.13520 | -1.01998 | 5994 ft | 232 kts | 263° |
| 2026-05-04 15:27 | 55.13300 | -1.04783 | 5758 ft | 231 kts | 263° |
| 2026-05-04 15:27 | 55.12862 | -1.10310 | 5251 ft | 228 kts | 263° |
| 2026-05-04 15:28 | 55.12426 | -1.15770 | 4759 ft | 226 kts | 262° |
| 2026-05-04 15:28 | 55.12209 | -1.18475 | 4535 ft | 225 kts | 263° |
| 2026-05-04 15:28 | 55.11777 | -1.23838 | 4164 ft | 217 kts | 262° |
| 2026-05-04 15:29 | 55.11572 | -1.26380 | 4056 ft | 210 kts | 262° |
| 2026-05-04 15:30 | 55.10775 | -1.36192 | 3652 ft | 197 kts | 262° |
| 2026-05-04 15:30 | 55.10214 | -1.43003 | 3083 ft | 180 kts | 263° |
| 2026-05-04 15:31 | 55.09599 | -1.47109 | 2654 ft | 171 kts | 248° |
| 2026-05-04 15:31 | 55.09114 | -1.48968 | 2484 ft | 164 kts | 248° |
| 2026-05-04 15:32 | 55.07753 | -1.54069 | 1970 ft | 147 kts | 246° |
| 2026-05-04 15:32 | 55.06922 | -1.57202 | 1617 ft | 142 kts | 246° |
| 2026-05-04 15:33 | 55.06114 | -1.60262 | 1179 ft | 137 kts | 245° |
| 2026-05-04 15:34 | 55.04896 | -1.64813 | 625 ft | 133 kts | 247° |
| 2026-05-04 15:34 | 55.04506 | -1.66287 | 450 ft | 133 kts | 247° |
| 2026-05-04 15:34 | 55.03768 | -1.69076 | 252 ft | 100 kts | 245° |
| 2026-05-04 15:35 | 55.03585 | -1.69991 | 261 ft | 13 kts | 273° |
| 2026-05-04 15:35 | 55.03591 | -1.70136 | 262 ft | 10 kts | 276° |
| 2026-05-04 15:35 | 55.03598 | -1.70251 | 264 ft | 9 kts | 276° |
| 2026-05-04 15:36 | 55.03598 | -1.70474 | 266 ft | 9 kts | 264° |
| 2026-05-04 15:36 | 55.03592 | -1.70580 | 266 ft | 9 kts | 264° |
| 2026-05-04 15:36 | 55.03593 | -1.70681 | 266 ft | 6 kts | 280° |
| 2026-05-04 15:37 | 55.03632 | -1.70716 | 266 ft | 7 kts | 358° |
| 2026-05-04 15:37 | 55.03651 | -1.70713 | 266 ft | 1 kts | 8° |
| 2026-05-04 15:37 | 55.03657 | -1.70712 | 266 ft | 0 kts | 6° |